createdAt,value
2022-12-03T00:00:58.336Z,12.68
2022-12-03T00:03:29.404Z,11.25
2022-12-03T00:05:59.697Z,12.23
2022-12-03T00:08:33.507Z,13.50
2022-12-03T00:11:03.625Z,11.93
2022-12-03T00:13:33.704Z,12.30
2022-12-03T00:16:06.717Z,11.60
2022-12-03T00:18:36.901Z,14.25
2022-12-03T00:21:07.246Z,11.77
2022-12-03T00:23:42.102Z,12.90
2022-12-03T00:26:12.515Z,11.25
2022-12-03T00:28:42.539Z,11.23
2022-12-03T00:31:15.316Z,11.23
2022-12-03T00:33:45.605Z,9.68
2022-12-03T00:36:15.679Z,10.48
2022-12-03T00:38:46.883Z,8.65
2022-12-03T00:41:16.974Z,10.82
2022-12-03T00:43:47.110Z,9.57
2022-12-03T00:46:21.560Z,10.20
2022-12-03T00:48:51.960Z,10.82
2022-12-03T00:51:22.534Z,10.25
2022-12-03T00:53:55.937Z,9.75
2022-12-03T00:56:26.050Z,9.30
2022-12-03T00:58:56.223Z,9.30
2022-12-03T01:01:28.999Z,9.27
2022-12-03T01:03:59.345Z,9.25
2022-12-03T01:06:29.452Z,8.57
2022-12-03T01:08:59.529Z,8.77
2022-12-03T01:11:41.976Z,8.55
2022-12-03T01:14:14.707Z,8.48
2022-12-03T01:16:47.765Z,9.38
2022-12-03T01:19:19.534Z,9.77
2022-12-03T01:21:51.564Z,9.57
2022-12-03T01:24:22.949Z,8.63
2022-12-03T01:26:53.059Z,10.10
2022-12-03T01:29:23.036Z,9.13
2022-12-03T01:32:08.106Z,8.88
2022-12-03T01:34:38.138Z,9.45
2022-12-03T01:37:08.216Z,8.25
2022-12-03T01:39:38.642Z,10.35
2022-12-03T01:42:10.923Z,9.70
2022-12-03T01:44:42.612Z,9.45
2022-12-03T01:47:19.596Z,9.48
2022-12-03T01:49:55.488Z,9.15
2022-12-03T01:52:28.220Z,10.30
2022-12-03T01:55:01.013Z,9.18
2022-12-03T01:57:43.788Z,9.57
2022-12-03T02:00:17.086Z,9.40
2022-12-03T02:02:51.156Z,9.07
2022-12-03T02:05:23.451Z,8.32
2022-12-03T02:07:53.816Z,9.45
2022-12-03T02:10:34.054Z,8.18
2022-12-03T02:13:06.697Z,8.32
2022-12-03T02:15:37.377Z,8.77
2022-12-03T02:18:11.683Z,9.18
2022-12-03T02:20:48.951Z,9.52
2022-12-03T02:23:29.329Z,9.05
2022-12-03T02:26:02.068Z,8.43
2022-12-03T02:28:32.143Z,10.10
2022-12-03T02:31:02.291Z,8.75
2022-12-03T02:33:32.280Z,9.13
2022-12-03T02:36:04.072Z,9.05
2022-12-03T02:38:37.039Z,8.40
2022-12-03T02:41:32.085Z,9.35
2022-12-03T02:43:59.554Z,8.70
2022-12-03T02:46:29.727Z,9.10
2022-12-03T02:49:00.588Z,9.30
2022-12-03T02:51:30.755Z,8.38
2022-12-03T02:54:01.712Z,9.75
2022-12-03T02:56:35.980Z,8.10
2022-12-03T02:59:08.377Z,8.43
2022-12-03T03:01:38.515Z,8.95
2022-12-03T03:04:09.371Z,9.45
2022-12-03T03:06:39.405Z,9.25
2022-12-03T03:09:09.723Z,8.18
2022-12-03T03:11:42.708Z,8.32
2022-12-03T03:14:12.828Z,9.57
2022-12-03T03:16:42.979Z,9.30
2022-12-03T03:19:13.314Z,8.18
2022-12-03T03:21:43.339Z,8.00
2022-12-03T03:24:13.416Z,8.05
2022-12-03T03:26:46.224Z,8.38
2022-12-03T03:29:16.759Z,8.73
2022-12-03T03:31:48.826Z,8.05
2022-12-03T03:34:19.539Z,8.50
2022-12-03T03:36:49.768Z,8.23
2022-12-03T03:39:20.173Z,9.05
2022-12-03T03:41:52.882Z,8.65
2022-12-03T03:44:22.998Z,8.10
2022-12-03T03:46:53.126Z,8.52
2022-12-03T03:49:23.547Z,9.40
2022-12-03T03:51:53.856Z,8.40
2022-12-03T03:54:24.640Z,9.23
2022-12-03T03:56:57.515Z,9.23
2022-12-03T03:59:27.636Z,8.43
2022-12-03T04:01:57.918Z,8.88
2022-12-03T04:04:29.271Z,9.55
2022-12-03T04:06:59.371Z,8.82
2022-12-03T04:09:29.595Z,9.25
2022-12-03T04:12:14.653Z,8.40
2022-12-03T04:14:44.740Z,8.38
2022-12-03T04:17:14.879Z,9.70
2022-12-03T04:19:45.114Z,9.63
2022-12-03T04:22:27.548Z,11.30
2022-12-03T04:25:18.028Z,10.13
2022-12-03T04:28:14.967Z,12.02
2022-12-03T04:30:45.203Z,12.68
2022-12-03T04:33:27.415Z,13.40
2022-12-03T04:35:57.533Z,12.93
2022-12-03T04:38:28.228Z,13.88
2022-12-03T04:41:04.500Z,13.70
2022-12-03T04:43:57.869Z,12.93
2022-12-03T04:46:27.906Z,11.68
2022-12-03T04:48:59.419Z,12.75
2022-12-03T04:51:29.473Z,12.45
2022-12-03T04:53:59.581Z,11.80
2022-12-03T04:56:29.536Z,11.55
2022-12-03T04:59:02.346Z,11.40
2022-12-03T05:01:32.588Z,12.50
2022-12-03T05:04:02.803Z,13.18
2022-12-03T05:06:32.949Z,12.95
2022-12-03T05:09:02.996Z,12.02
2022-12-03T05:11:33.185Z,12.18
2022-12-03T05:14:06.180Z,12.80
2022-12-03T05:16:36.249Z,10.88
2022-12-03T05:19:07.882Z,12.02
2022-12-03T05:21:35.816Z,12.65
2022-12-03T05:24:06.071Z,11.95
2022-12-03T05:26:36.193Z,12.88
2022-12-03T05:29:08.894Z,12.13
2022-12-03T05:31:38.915Z,12.25
2022-12-03T05:34:08.940Z,13.32
2022-12-03T05:36:38.950Z,12.30
2022-12-03T05:39:12.842Z,13.43
2022-12-03T05:41:55.163Z,14.55
2022-12-03T05:44:27.813Z,16.15
2022-12-03T05:46:57.899Z,15.73
2022-12-03T05:49:27.956Z,16.25
2022-12-03T05:51:58.858Z,18.00
2022-12-03T05:54:29.121Z,14.60
2022-12-03T05:56:59.260Z,14.60
2022-12-03T05:59:32.010Z,15.45
2022-12-03T06:02:02.088Z,15.07
2022-12-03T06:04:32.181Z,15.75
2022-12-03T06:07:02.225Z,13.45
2022-12-03T06:09:32.351Z,14.50
2022-12-03T06:12:02.435Z,12.85
2022-12-03T06:14:35.859Z,12.75
2022-12-03T06:17:05.946Z,14.15
2022-12-03T06:19:36.174Z,13.23
2022-12-03T06:22:06.242Z,12.57
2022-12-03T06:24:36.354Z,11.57
2022-12-03T06:27:06.580Z,11.00
2022-12-03T06:29:39.396Z,13.32
2022-12-03T06:32:09.841Z,12.00
2022-12-03T06:34:40.245Z,12.15
2022-12-03T06:37:10.350Z,12.10
2022-12-03T06:39:40.359Z,12.40
2022-12-03T06:42:10.475Z,12.20
2022-12-03T06:44:43.181Z,13.63
2022-12-03T06:47:13.236Z,12.80
2022-12-03T06:49:43.347Z,12.88
2022-12-03T06:52:13.439Z,12.38
2022-12-03T06:54:43.483Z,11.20
2022-12-03T06:57:13.547Z,11.90
2022-12-03T06:59:46.166Z,12.20
2022-12-03T07:02:16.397Z,12.27
2022-12-03T07:04:46.681Z,11.68
2022-12-03T07:07:17.243Z,12.15
2022-12-03T07:09:47.356Z,12.75
2022-12-03T07:12:17.480Z,12.20
2022-12-03T07:14:50.307Z,13.10
2022-12-03T07:17:20.380Z,14.48
2022-12-03T07:19:50.457Z,13.55
2022-12-03T07:22:20.591Z,16.63
2022-12-03T07:24:50.860Z,17.00
2022-12-03T07:27:21.285Z,16.98
2022-12-03T07:29:54.035Z,18.38
2022-12-03T07:32:26.521Z,15.30
2022-12-03T07:34:56.732Z,16.80
2022-12-03T07:37:27.002Z,17.17
2022-12-03T07:39:57.079Z,17.42
2022-12-03T07:42:27.788Z,16.75
2022-12-03T07:45:00.477Z,14.80
2022-12-03T07:47:30.629Z,16.70
2022-12-03T07:50:00.694Z,16.08
2022-12-03T07:52:30.998Z,16.33
2022-12-03T07:55:01.128Z,16.73
2022-12-03T07:57:31.300Z,17.40
2022-12-03T08:00:05.443Z,17.23
2022-12-03T08:02:35.660Z,14.38
2022-12-03T08:05:05.857Z,12.65
2022-12-03T08:07:36.025Z,12.75
2022-12-03T08:10:07.209Z,12.57
2022-12-03T08:12:42.807Z,12.50
2022-12-03T08:15:18.616Z,12.43
2022-12-03T08:17:54.061Z,13.02
2022-12-03T08:20:26.423Z,15.98
2022-12-03T08:22:59.780Z,13.18
2022-12-03T08:25:31.901Z,12.13
2022-12-03T08:28:10.914Z,11.68
2022-12-03T08:30:43.770Z,11.20
2022-12-03T08:33:20.734Z,12.77
2022-12-03T08:35:53.642Z,11.60
2022-12-03T08:38:26.126Z,13.05
2022-12-03T08:40:58.073Z,13.13
2022-12-03T08:43:29.981Z,13.75
2022-12-03T08:46:02.834Z,13.82
2022-12-03T08:48:37.763Z,14.02
2022-12-03T08:51:15.842Z,14.23
2022-12-03T08:53:49.004Z,16.33
2022-12-03T08:56:27.020Z,14.10
2022-12-03T08:59:00.822Z,15.90
2022-12-03T09:01:42.194Z,16.25
2022-12-03T09:04:28.182Z,18.63
2022-12-03T09:06:59.279Z,18.10
2022-12-03T09:09:30.444Z,15.63
2022-12-03T09:12:02.274Z,16.58
2022-12-03T09:14:32.979Z,17.30
2022-12-03T09:17:05.975Z,16.05
2022-12-03T09:19:38.984Z,16.67
2022-12-03T09:22:11.650Z,15.18
2022-12-03T09:24:42.627Z,13.93
2022-12-03T09:27:13.039Z,13.73
2022-12-03T09:29:43.368Z,13.23
2022-12-03T09:32:18.626Z,13.13
2022-12-03T09:34:49.091Z,13.35
2022-12-03T09:37:19.299Z,13.63
2022-12-03T09:39:49.463Z,13.68
2022-12-03T09:42:20.128Z,13.90
2022-12-03T09:44:50.223Z,13.80
2022-12-03T09:47:23.639Z,13.43
2022-12-03T09:49:54.708Z,12.00
2022-12-03T09:52:27.648Z,12.10
2022-12-03T09:54:58.520Z,13.55
2022-12-03T09:57:28.750Z,11.15
2022-12-03T09:59:59.049Z,11.02
2022-12-03T10:02:34.432Z,11.57
2022-12-03T10:05:04.674Z,11.15
2022-12-03T10:07:34.922Z,11.30
2022-12-03T10:10:05.064Z,11.27
2022-12-03T10:12:35.161Z,10.95
2022-12-03T10:15:05.407Z,10.45
2022-12-03T10:17:38.152Z,9.57
2022-12-03T10:20:10.718Z,10.40
2022-12-03T10:22:40.901Z,10.45
2022-12-03T10:25:13.129Z,9.15
2022-12-03T10:27:44.471Z,10.77
2022-12-03T10:30:19.791Z,9.85
2022-12-03T10:32:53.999Z,10.32
2022-12-03T10:35:26.754Z,9.95
2022-12-03T10:38:03.271Z,10.98
2022-12-03T10:40:35.358Z,10.50
2022-12-03T10:43:24.495Z,8.77
2022-12-03T10:46:14.137Z,10.10
2022-12-03T10:49:13.494Z,9.20
2022-12-03T10:51:43.739Z,10.50
2022-12-03T10:54:21.389Z,7.82
2022-12-03T10:56:55.185Z,9.20
2022-12-03T10:59:28.024Z,7.38
2022-12-03T11:01:58.476Z,7.20
2022-12-03T11:04:35.191Z,8.65
2022-12-03T11:07:06.208Z,8.40
2022-12-03T11:09:37.288Z,9.48
2022-12-03T11:12:08.914Z,8.48
2022-12-03T11:15:10.493Z,8.30
2022-12-03T11:17:49.487Z,9.45
2022-12-03T11:21:01.295Z,9.30
2022-12-03T11:24:01.356Z,8.55
2022-12-03T11:27:01.330Z,7.22
2022-12-03T11:29:53.409Z,7.65
2022-12-03T11:33:02.868Z,6.75
2022-12-03T11:35:40.281Z,6.68
2022-12-03T11:38:52.250Z,7.40
2022-12-03T11:41:25.465Z,7.22
2022-12-03T11:44:34.257Z,6.75
2022-12-03T11:47:16.913Z,6.75
2022-12-03T11:49:51.962Z,7.25
2022-12-03T11:52:28.553Z,6.00
2022-12-03T11:55:04.405Z,6.57
2022-12-03T11:57:40.519Z,6.68
2022-12-03T12:00:23.444Z,8.07
2022-12-03T12:02:58.259Z,6.18
2022-12-03T12:05:32.626Z,6.55
2022-12-03T12:08:04.261Z,5.63
2022-12-03T12:10:55.421Z,6.00
2022-12-03T12:13:29.933Z,6.15
2022-12-03T12:16:00.107Z,5.60
2022-12-03T12:18:43.947Z,4.43
2022-12-03T12:21:41.960Z,5.97
2022-12-03T12:24:36.059Z,6.30
2022-12-03T12:27:09.542Z,5.43
2022-12-03T12:29:40.543Z,6.18
2022-12-03T12:32:17.563Z,5.90
2022-12-03T12:34:52.609Z,5.22
2022-12-03T12:37:24.380Z,5.30
2022-12-03T12:39:58.920Z,5.82
2022-12-03T12:42:37.810Z,5.03
2022-12-03T12:45:19.070Z,5.18
2022-12-03T12:48:03.292Z,5.95
2022-12-03T12:50:36.572Z,5.72
2022-12-03T12:53:14.264Z,5.35
2022-12-03T12:55:44.409Z,6.20
2022-12-03T12:58:18.598Z,6.43
2022-12-03T13:03:20.764Z,6.35
2022-12-03T13:05:55.152Z,6.55
2022-12-03T13:08:30.183Z,6.72
2022-12-03T13:11:01.437Z,6.25
2022-12-03T13:13:43.910Z,7.05
2022-12-03T13:16:21.007Z,7.18
2022-12-03T13:18:52.506Z,7.07
2022-12-03T13:21:28.588Z,6.70
2022-12-03T13:24:00.184Z,7.00
2022-12-03T13:26:41.394Z,5.30
2022-12-03T13:29:17.829Z,5.38
2022-12-03T13:31:54.715Z,6.70
2022-12-03T13:34:27.536Z,7.47
2022-12-03T13:37:00.364Z,6.72
2022-12-03T13:39:35.273Z,7.60
2022-12-03T13:42:33.026Z,7.32
2022-12-03T13:45:04.614Z,7.00
2022-12-03T13:47:35.227Z,7.47
2022-12-03T13:50:13.424Z,7.43
2022-12-03T13:52:46.109Z,7.50
2022-12-03T13:55:18.381Z,8.18
2022-12-03T13:57:48.608Z,10.15
2022-12-03T14:00:19.119Z,9.25
2022-12-03T14:02:49.868Z,8.32
2022-12-03T14:05:20.192Z,8.15
2022-12-03T14:07:58.171Z,8.10
2022-12-03T14:10:33.796Z,7.25
2022-12-03T14:13:18.938Z,7.53
2022-12-03T14:15:48.967Z,6.93
2022-12-03T14:18:19.141Z,8.45
2022-12-03T14:20:49.477Z,7.53
2022-12-03T14:23:22.253Z,6.78
2022-12-03T14:25:52.281Z,7.95
2022-12-03T14:28:22.499Z,7.07
2022-12-03T14:30:52.519Z,6.72
2022-12-03T14:33:22.571Z,6.40
2022-12-03T14:35:54.416Z,7.25
2022-12-03T14:38:27.228Z,8.60
2022-12-03T14:40:57.312Z,8.35
2022-12-03T14:43:27.368Z,8.30
2022-12-03T14:45:57.526Z,7.60
2022-12-03T14:48:28.300Z,8.63
2022-12-03T14:50:58.340Z,8.93
2022-12-03T14:53:31.196Z,7.40
2022-12-03T14:56:01.273Z,8.07
2022-12-03T14:58:31.433Z,8.35
2022-12-03T15:01:01.614Z,7.82
2022-12-03T15:03:31.709Z,7.72
2022-12-03T15:06:02.412Z,7.85
2022-12-03T15:08:35.094Z,8.48
2022-12-03T15:11:07.714Z,7.65
2022-12-03T15:13:37.814Z,7.38
2022-12-03T15:16:08.726Z,7.50
2022-12-03T15:18:38.808Z,7.88
2022-12-03T15:21:09.258Z,8.15
2022-12-03T15:23:42.201Z,7.30
2022-12-03T15:26:12.364Z,8.55
2022-12-03T15:28:47.921Z,9.80
2022-12-03T15:31:18.462Z,11.48
2022-12-03T15:33:50.097Z,10.02
2022-12-03T15:36:20.213Z,10.60
2022-12-03T15:38:53.003Z,9.68
2022-12-03T15:41:24.946Z,11.43
2022-12-03T15:43:55.620Z,9.57
2022-12-03T15:46:27.819Z,10.77
2022-12-03T15:48:58.669Z,14.23
2022-12-03T15:51:28.849Z,10.02
2022-12-03T15:54:01.500Z,12.73
2022-12-03T15:56:31.564Z,16.15
2022-12-03T15:59:01.719Z,13.90
2022-12-03T16:01:31.860Z,13.02
2022-12-03T16:04:01.990Z,15.98
2022-12-03T16:06:32.016Z,19.70
2022-12-03T16:09:04.716Z,17.70
2022-12-03T16:11:34.784Z,14.55
2022-12-03T16:14:04.923Z,10.02
2022-12-03T16:16:35.036Z,10.65
2022-12-03T16:19:05.663Z,10.80
2022-12-03T16:21:35.925Z,10.30
2022-12-03T16:24:09.100Z,12.07
2022-12-03T16:26:39.292Z,10.33
2022-12-03T16:29:12.159Z,9.85
2022-12-03T16:31:42.241Z,10.32
2022-12-03T16:34:12.426Z,10.55
2022-12-03T16:36:42.593Z,10.88
2022-12-03T16:39:16.569Z,10.30
2022-12-03T16:41:46.843Z,10.85
2022-12-03T16:44:30.619Z,10.60
2022-12-03T16:47:01.630Z,10.32
2022-12-03T16:49:31.803Z,10.57
2022-12-03T16:52:01.878Z,9.50
2022-12-03T16:54:34.468Z,9.90
2022-12-03T16:57:04.474Z,11.18
2022-12-03T16:59:34.928Z,11.38
2022-12-03T17:02:05.146Z,10.48
2022-12-03T17:04:35.361Z,11.93
2022-12-03T17:07:05.454Z,10.88
2022-12-03T17:09:39.655Z,12.38
2022-12-03T17:12:10.500Z,10.75
2022-12-03T17:14:48.976Z,11.35
2022-12-03T17:17:19.238Z,11.50
2022-12-03T17:19:50.483Z,13.13
2022-12-03T17:22:20.596Z,12.82
2022-12-03T17:24:55.448Z,15.15
2022-12-03T17:27:25.891Z,15.70
2022-12-03T17:29:56.283Z,18.33
2022-12-03T17:32:26.575Z,19.70
2022-12-03T17:34:56.605Z,19.23
2022-12-03T17:37:26.797Z,21.67
2022-12-03T17:39:59.457Z,21.88
2022-12-03T17:42:29.687Z,19.77
2022-12-03T17:44:59.861Z,18.48
2022-12-03T17:47:29.949Z,19.60
2022-12-03T17:50:00.328Z,19.80
2022-12-03T17:52:30.467Z,18.77
2022-12-03T17:55:15.793Z,15.75
2022-12-03T17:57:50.492Z,18.02
2022-12-03T18:00:21.143Z,17.02
2022-12-03T18:02:51.203Z,17.05
2022-12-03T18:05:21.238Z,18.52
2022-12-03T18:07:51.449Z,18.52
2022-12-03T18:10:24.160Z,18.23
2022-12-03T18:12:59.835Z,20.75
2022-12-03T18:15:31.708Z,25.38
2022-12-03T18:18:01.815Z,25.15
2022-12-03T18:20:32.227Z,24.40
2022-12-03T18:23:02.551Z,21.73
2022-12-03T18:25:35.383Z,19.98
2022-12-03T18:28:05.452Z,18.75
2022-12-03T18:30:35.649Z,16.67
2022-12-03T18:33:05.902Z,15.35
2022-12-03T18:35:36.107Z,15.23
2022-12-03T18:38:06.488Z,14.27
2022-12-03T18:40:39.733Z,12.93
2022-12-03T18:43:14.511Z,14.70
2022-12-03T18:45:45.046Z,13.68
2022-12-03T18:48:16.133Z,12.90
2022-12-03T18:50:46.640Z,13.88
2022-12-03T18:53:18.769Z,12.88
2022-12-03T18:55:51.598Z,13.77
2022-12-03T18:58:21.680Z,12.52
2022-12-03T19:00:51.841Z,12.35
2022-12-03T19:03:22.188Z,13.18
2022-12-03T19:05:52.451Z,14.05
2022-12-03T19:08:22.600Z,12.15
2022-12-03T19:11:01.791Z,11.10
2022-12-03T19:13:31.944Z,13.07
2022-12-03T19:16:04.960Z,13.20
2022-12-03T19:18:35.115Z,13.77
2022-12-03T19:21:09.621Z,13.40
2022-12-03T19:23:40.353Z,17.63
2022-12-03T19:26:14.079Z,17.90
2022-12-03T19:28:44.991Z,15.05
2022-12-03T19:31:17.278Z,15.48
2022-12-03T19:33:48.455Z,17.30
2022-12-03T19:36:24.401Z,17.42
2022-12-03T19:38:57.303Z,16.77
2022-12-03T19:41:33.463Z,16.25
2022-12-03T19:44:09.256Z,15.93
2022-12-03T19:46:41.003Z,16.75
2022-12-03T19:49:11.485Z,15.35
2022-12-03T19:51:41.546Z,14.88
2022-12-03T19:54:14.663Z,17.05
2022-12-03T19:56:47.490Z,16.95
2022-12-03T19:59:17.647Z,15.77
2022-12-03T20:01:47.955Z,16.83
2022-12-03T20:04:18.072Z,15.70
2022-12-03T20:06:48.444Z,18.02
2022-12-03T20:09:21.281Z,17.10
2022-12-03T20:11:55.543Z,18.75
2022-12-03T20:14:25.795Z,17.55
2022-12-03T20:17:00.921Z,17.48
2022-12-03T20:19:31.072Z,13.43
2022-12-03T20:22:03.021Z,13.60
2022-12-03T20:24:33.245Z,14.25
2022-12-03T20:27:06.086Z,14.93
2022-12-03T20:29:36.310Z,14.27
2022-12-03T20:32:07.158Z,15.93
2022-12-03T20:34:38.217Z,16.10
2022-12-03T20:37:08.315Z,16.48
2022-12-03T20:39:38.370Z,14.70
2022-12-03T20:42:11.613Z,15.27
2022-12-03T20:44:41.685Z,15.52
2022-12-03T20:47:11.844Z,16.52
2022-12-03T20:49:42.095Z,16.00
2022-12-03T20:52:12.136Z,15.85
2022-12-03T20:54:42.123Z,17.48
2022-12-03T20:57:14.846Z,17.40
2022-12-03T20:59:45.027Z,18.73
2022-12-03T21:02:15.235Z,16.98
2022-12-03T21:04:45.440Z,18.77
2022-12-03T21:07:15.620Z,21.08
2022-12-03T21:09:45.723Z,20.90
2022-12-03T21:12:18.376Z,21.83
2022-12-03T21:14:48.743Z,20.90
2022-12-03T21:17:19.028Z,19.45
2022-12-03T21:19:49.699Z,18.02
2022-12-03T21:22:19.761Z,17.73
2022-12-03T21:24:52.129Z,18.70
2022-12-03T21:27:24.881Z,19.80
2022-12-03T21:29:55.377Z,20.52
2022-12-03T21:32:25.752Z,17.60
2022-12-03T21:34:55.824Z,17.83
2022-12-03T21:37:25.877Z,17.88
2022-12-03T21:39:56.038Z,18.20
2022-12-03T21:42:35.893Z,16.58
2022-12-03T21:45:08.358Z,19.50
2022-12-03T21:47:38.513Z,19.42
2022-12-03T21:50:12.353Z,18.05
2022-12-03T21:52:42.425Z,17.98
2022-12-03T21:55:13.227Z,17.67
2022-12-03T22:02:52.534Z,17.55
2022-12-03T22:05:22.791Z,17.00
2022-12-03T22:07:53.023Z,16.98
2022-12-03T22:10:23.443Z,18.23
2022-12-03T22:12:57.168Z,18.00
2022-12-03T22:15:27.199Z,16.50
2022-12-03T22:19:41.067Z,18.33
2022-12-03T22:22:11.633Z,18.03
2022-12-03T22:24:42.064Z,16.77
2022-12-03T22:27:12.230Z,18.25
2022-12-03T22:29:42.328Z,18.80
2022-12-03T22:32:12.440Z,17.23
2022-12-03T22:34:45.472Z,18.20
2022-12-03T22:37:15.590Z,17.70
2022-12-03T22:39:45.727Z,18.38
2022-12-03T22:42:15.926Z,18.15
2022-12-03T22:44:46.000Z,18.15
2022-12-03T22:47:16.143Z,18.45
2022-12-03T22:49:48.851Z,17.25
2022-12-03T22:52:19.112Z,18.40
2022-12-03T22:54:49.219Z,18.25
2022-12-03T22:57:19.426Z,17.42
2022-12-03T22:59:49.908Z,17.25
2022-12-03T23:02:20.663Z,17.70
2022-12-03T23:04:53.534Z,16.95
2022-12-03T23:07:23.542Z,17.58
2022-12-03T23:09:54.427Z,17.25
2022-12-03T23:12:24.903Z,16.95
2022-12-03T23:14:57.605Z,15.82
2022-12-03T23:17:28.660Z,16.25
2022-12-03T23:20:01.758Z,15.68
2022-12-03T23:22:31.861Z,17.05
2022-12-03T23:25:01.880Z,17.08
2022-12-03T23:27:32.022Z,14.80
2022-12-03T23:30:02.427Z,16.55
2022-12-03T23:32:33.344Z,15.20
2022-12-03T23:35:06.952Z,17.38
2022-12-03T23:37:39.805Z,16.52
2022-12-03T23:40:11.372Z,15.90
2022-12-03T23:42:41.467Z,15.25
2022-12-03T23:45:12.680Z,15.55
2022-12-03T23:47:42.809Z,14.85
2022-12-03T23:50:16.062Z,17.38
2022-12-03T23:52:46.252Z,16.23
2022-12-03T23:55:16.367Z,15.63
2022-12-03T23:57:46.459Z,15.20
